sensor_id;sensor_type;location;lat;lon;timestamp;pressure;altitude;pressure_sealevel;temperature;humidity
33286;BME280;19656;50.096;20.014;2024-02-04T00:04:32;98917.19;;;9.52;75.49
33286;BME280;19656;50.096;20.014;2024-02-04T00:09:36;98916.08;;;9.47;75.39
33286;BME280;19656;50.096;20.014;2024-02-04T00:14:39;98921.14;;;9.42;75.62
33286;BME280;19656;50.096;20.014;2024-02-04T00:19:42;98916.15;;;9.51;75.62
33286;BME280;19656;50.096;20.014;2024-02-04T00:24:45;98906.88;;;9.56;75.51
33286;BME280;19656;50.096;20.014;2024-02-04T00:29:49;98896.17;;;9.57;75.59
33286;BME280;19656;50.096;20.014;2024-02-04T00:34:53;98884.15;;;9.56;75.52
33286;BME280;19656;50.096;20.014;2024-02-04T00:39:56;98880.24;;;9.56;75.30
33286;BME280;19656;50.096;20.014;2024-02-04T00:44:59;98879.28;;;9.46;75.44
33286;BME280;19656;50.096;20.014;2024-02-04T00:50:03;98880.34;;;9.40;75.46
33286;BME280;19656;50.096;20.014;2024-02-04T00:55:07;98893.95;;;9.40;75.53
33286;BME280;19656;50.096;20.014;2024-02-04T01:00:11;98892.00;;;9.53;75.60
33286;BME280;19656;50.096;20.014;2024-02-04T01:05:15;98895.09;;;9.60;75.37
33286;BME280;19656;50.096;20.014;2024-02-04T01:10:19;98890.23;;;9.58;75.43
33286;BME280;19656;50.096;20.014;2024-02-04T01:15:22;98891.77;;;9.53;75.62
33286;BME280;19656;50.096;20.014;2024-02-04T01:20:25;98905.11;;;9.46;76.05
33286;BME280;19656;50.096;20.014;2024-02-04T01:25:29;98898.79;;;9.42;76.40
33286;BME280;19656;50.096;20.014;2024-02-04T01:30:32;98900.02;;;9.34;76.82
33286;BME280;19656;50.096;20.014;2024-02-04T01:35:35;98897.98;;;9.35;77.20
33286;BME280;19656;50.096;20.014;2024-02-04T01:40:38;98885.01;;;9.33;77.38
33286;BME280;19656;50.096;20.014;2024-02-04T01:45:42;98881.15;;;9.27;77.59
33286;BME280;19656;50.096;20.014;2024-02-04T01:50:46;98881.51;;;9.27;77.99
33286;BME280;19656;50.096;20.014;2024-02-04T01:55:50;98868.21;;;9.36;77.80
33286;BME280;19656;50.096;20.014;2024-02-04T02:00:54;98862.45;;;9.40;77.79
33286;BME280;19656;50.096;20.014;2024-02-04T02:05:59;98854.74;;;9.41;77.57
33286;BME280;19656;50.096;20.014;2024-02-04T02:11:15;98855.70;;;9.41;77.51
33286;BME280;19656;50.096;20.014;2024-02-04T02:16:23;98855.25;;;9.33;77.60
33286;BME280;19656;50.096;20.014;2024-02-04T02:26:50;98845.92;;;9.29;77.93
33286;BME280;19656;50.096;20.014;2024-02-04T02:31:53;98841.91;;;9.34;78.00
33286;BME280;19656;50.096;20.014;2024-02-04T02:37:00;98848.14;;;9.34;78.05
33286;BME280;19656;50.096;20.014;2024-02-04T02:42:05;98846.55;;;9.37;78.06
33286;BME280;19656;50.096;20.014;2024-02-04T02:47:09;98855.40;;;9.37;77.80
33286;BME280;19656;50.096;20.014;2024-02-04T02:52:12;98857.04;;;9.30;77.94
33286;BME280;19656;50.096;20.014;2024-02-04T02:57:16;98844.70;;;9.23;78.24
33286;BME280;19656;50.096;20.014;2024-02-04T03:02:19;98844.90;;;9.29;78.39
33286;BME280;19656;50.096;20.014;2024-02-04T03:07:22;98858.38;;;9.28;77.98
33286;BME280;19656;50.096;20.014;2024-02-04T03:12:25;98872.75;;;9.19;77.85
33286;BME280;19656;50.096;20.014;2024-02-04T03:17:29;98878.58;;;9.10;77.32
33286;BME280;19656;50.096;20.014;2024-02-04T03:22:32;98883.52;;;9.08;77.09
33286;BME280;19656;50.096;20.014;2024-02-04T03:27:35;98880.42;;;9.02;76.48
33286;BME280;19656;50.096;20.014;2024-02-04T03:32:39;98866.90;;;9.01;76.55
33286;BME280;19656;50.096;20.014;2024-02-04T03:37:42;98843.62;;;9.03;75.59
33286;BME280;19656;50.096;20.014;2024-02-04T03:42:46;98841.23;;;8.98;75.06
33286;BME280;19656;50.096;20.014;2024-02-04T03:47:49;98841.13;;;8.97;74.62
33286;BME280;19656;50.096;20.014;2024-02-04T03:52:52;98849.99;;;8.94;74.47
33286;BME280;19656;50.096;20.014;2024-02-04T03:57:58;98850.16;;;8.88;74.29
33286;BME280;19656;50.096;20.014;2024-02-04T04:03:02;98852.08;;;8.88;73.99
33286;BME280;19656;50.096;20.014;2024-02-04T04:08:05;98851.16;;;8.89;73.61
33286;BME280;19656;50.096;20.014;2024-02-04T04:13:09;98853.75;;;8.87;72.93
33286;BME280;19656;50.096;20.014;2024-02-04T04:18:13;98853.48;;;8.88;72.86
33286;BME280;19656;50.096;20.014;2024-02-04T04:23:16;98849.58;;;8.88;72.26
33286;BME280;19656;50.096;20.014;2024-02-04T04:28:19;98855.91;;;8.86;71.98
33286;BME280;19656;50.096;20.014;2024-02-04T04:33:22;98861.87;;;8.84;71.89
33286;BME280;19656;50.096;20.014;2024-02-04T04:38:26;98863.30;;;8.87;71.60
33286;BME280;19656;50.096;20.014;2024-02-04T04:43:29;98868.06;;;8.87;71.35
33286;BME280;19656;50.096;20.014;2024-02-04T04:48:32;98855.93;;;8.89;71.19
33286;BME280;19656;50.096;20.014;2024-02-04T04:53:36;98851.39;;;8.91;71.23
33286;BME280;19656;50.096;20.014;2024-02-04T04:58:39;98858.34;;;8.87;70.99
33286;BME280;19656;50.096;20.014;2024-02-04T05:03:44;98852.73;;;8.86;71.03
33286;BME280;19656;50.096;20.014;2024-02-04T05:08:47;98857.88;;;8.95;71.13
33286;BME280;19656;50.096;20.014;2024-02-04T05:13:50;98855.96;;;9.00;70.95
33286;BME280;19656;50.096;20.014;2024-02-04T05:18:53;98864.10;;;9.00;70.94
33286;BME280;19656;50.096;20.014;2024-02-04T05:23:57;98862.58;;;9.08;71.05
33286;BME280;19656;50.096;20.014;2024-02-04T05:29:01;98874.23;;;9.12;70.87
33286;BME280;19656;50.096;20.014;2024-02-04T05:34:05;98872.41;;;9.10;70.86
33286;BME280;19656;50.096;20.014;2024-02-04T05:39:14;98863.35;;;9.05;71.14
33286;BME280;19656;50.096;20.014;2024-02-04T05:44:17;98858.66;;;9.08;71.04
33286;BME280;19656;50.096;20.014;2024-02-04T05:49:20;98853.78;;;9.10;71.02
33286;BME280;19656;50.096;20.014;2024-02-04T05:54:23;98872.63;;;9.03;71.01
33286;BME280;19656;50.096;20.014;2024-02-04T05:59:26;98874.53;;;8.88;71.19
33286;BME280;19656;50.096;20.014;2024-02-04T06:04:29;98869.78;;;8.63;70.71
33286;BME280;19656;50.096;20.014;2024-02-04T06:09:33;98865.52;;;8.54;70.68
33286;BME280;19656;50.096;20.014;2024-02-04T06:14:36;98867.14;;;8.54;70.83
33286;BME280;19656;50.096;20.014;2024-02-04T06:19:43;98885.05;;;8.49;70.36
33286;BME280;19656;50.096;20.014;2024-02-04T06:24:46;98889.42;;;8.50;70.39
33286;BME280;19656;50.096;20.014;2024-02-04T06:29:49;98875.88;;;8.49;70.60
33286;BME280;19656;50.096;20.014;2024-02-04T06:34:52;98854.48;;;8.52;70.67
33286;BME280;19656;50.096;20.014;2024-02-04T06:39:58;98862.23;;;8.53;71.06
33286;BME280;19656;50.096;20.014;2024-02-04T06:45:02;98872.45;;;8.54;71.53
33286;BME280;19656;50.096;20.014;2024-02-04T06:50:07;98879.85;;;8.60;72.42
33286;BME280;19656;50.096;20.014;2024-02-04T06:55:10;98877.74;;;8.54;71.46
33286;BME280;19656;50.096;20.014;2024-02-04T07:00:13;98886.98;;;8.56;70.81
33286;BME280;19656;50.096;20.014;2024-02-04T07:05:18;98892.72;;;8.55;69.84
33286;BME280;19656;50.096;20.014;2024-02-04T07:10:21;98884.08;;;8.51;69.27
33286;BME280;19656;50.096;20.014;2024-02-04T07:15:24;98871.81;;;8.43;69.54
33286;BME280;19656;50.096;20.014;2024-02-04T07:20:28;98862.11;;;8.46;70.12
33286;BME280;19656;50.096;20.014;2024-02-04T07:25:31;98857.59;;;8.57;70.66
33286;BME280;19656;50.096;20.014;2024-02-04T07:30:35;98864.37;;;8.78;71.43
33286;BME280;19656;50.096;20.014;2024-02-04T07:35:38;98871.92;;;8.88;71.05
33286;BME280;19656;50.096;20.014;2024-02-04T07:40:41;98896.49;;;8.85;68.59
33286;BME280;19656;50.096;20.014;2024-02-04T07:45:45;98884.78;;;8.79;66.86
33286;BME280;19656;50.096;20.014;2024-02-04T07:50:48;98885.48;;;8.80;65.79
33286;BME280;19656;50.096;20.014;2024-02-04T07:55:52;98882.45;;;8.77;64.95
33286;BME280;19656;50.096;20.014;2024-02-04T08:00:55;98884.06;;;8.83;64.34
33286;BME280;19656;50.096;20.014;2024-02-04T08:06:01;98900.52;;;8.89;63.88
33286;BME280;19656;50.096;20.014;2024-02-04T08:11:05;98906.48;;;8.87;63.82
33286;BME280;19656;50.096;20.014;2024-02-04T08:16:08;98897.16;;;8.89;63.39
33286;BME280;19656;50.096;20.014;2024-02-04T08:21:11;98904.96;;;8.92;62.83
33286;BME280;19656;50.096;20.014;2024-02-04T08:26:15;98912.24;;;8.88;62.81
33286;BME280;19656;50.096;20.014;2024-02-04T08:31:18;98919.63;;;8.89;62.45
33286;BME280;19656;50.096;20.014;2024-02-04T08:36:21;98920.84;;;8.83;61.38
33286;BME280;19656;50.096;20.014;2024-02-04T08:41:24;98915.69;;;8.77;60.99
33286;BME280;19656;50.096;20.014;2024-02-04T08:46:28;98921.38;;;8.76;60.79
33286;BME280;19656;50.096;20.014;2024-02-04T08:51:31;98917.78;;;8.77;60.66
33286;BME280;19656;50.096;20.014;2024-02-04T08:56:34;98925.11;;;8.76;60.26
33286;BME280;19656;50.096;20.014;2024-02-04T09:01:38;98920.57;;;8.78;61.21
33286;BME280;19656;50.096;20.014;2024-02-04T09:06:41;98924.06;;;8.91;61.29
33286;BME280;19656;50.096;20.014;2024-02-04T09:11:45;98925.55;;;8.99;61.04
33286;BME280;19656;50.096;20.014;2024-02-04T09:16:48;98927.73;;;9.02;61.09
33286;BME280;19656;50.096;20.014;2024-02-04T09:21:52;98944.04;;;9.01;60.94
33286;BME280;19656;50.096;20.014;2024-02-04T09:26:55;98952.30;;;8.96;60.83
33286;BME280;19656;50.096;20.014;2024-02-04T09:31:58;98950.30;;;8.94;61.42
33286;BME280;19656;50.096;20.014;2024-02-04T09:37:02;98951.77;;;8.99;61.80
33286;BME280;19656;50.096;20.014;2024-02-04T09:42:06;98967.05;;;9.07;62.06
33286;BME280;19656;50.096;20.014;2024-02-04T09:47:11;98967.73;;;9.14;62.03
33286;BME280;19656;50.096;20.014;2024-02-04T09:52:19;98950.81;;;9.28;61.91
33286;BME280;19656;50.096;20.014;2024-02-04T09:57:24;98943.39;;;9.28;61.06
33286;BME280;19656;50.096;20.014;2024-02-04T10:02:27;98933.07;;;9.26;61.02
33286;BME280;19656;50.096;20.014;2024-02-04T10:07:31;98926.05;;;9.30;60.91
33286;BME280;19656;50.096;20.014;2024-02-04T10:12:34;98923.25;;;9.39;60.76
33286;BME280;19656;50.096;20.014;2024-02-04T10:17:42;98939.60;;;9.38;60.85
33286;BME280;19656;50.096;20.014;2024-02-04T10:22:46;98914.84;;;9.46;60.85
33286;BME280;19656;50.096;20.014;2024-02-04T10:27:54;98913.41;;;9.53;60.22
33286;BME280;19656;50.096;20.014;2024-02-04T10:32:59;98910.02;;;9.68;60.57
33286;BME280;19656;50.096;20.014;2024-02-04T10:38:02;98895.22;;;9.72;61.07
33286;BME280;19656;50.096;20.014;2024-02-04T10:43:07;98881.63;;;9.68;61.88
33286;BME280;19656;50.096;20.014;2024-02-04T10:48:11;98867.42;;;9.66;62.21
33286;BME280;19656;50.096;20.014;2024-02-04T10:53:14;98853.27;;;9.69;62.29
33286;BME280;19656;50.096;20.014;2024-02-04T10:58:19;98859.46;;;9.72;62.01
33286;BME280;19656;50.096;20.014;2024-02-04T11:03:23;98844.83;;;9.70;61.36
33286;BME280;19656;50.096;20.014;2024-02-04T11:08:31;98835.04;;;9.78;61.01
33286;BME280;19656;50.096;20.014;2024-02-04T11:13:35;98822.98;;;9.89;61.38
33286;BME280;19656;50.096;20.014;2024-02-04T11:18:54;98801.70;;;10.06;61.44
33286;BME280;19656;50.096;20.014;2024-02-04T11:29:13;98803.41;;;10.21;58.16
33286;BME280;19656;50.096;20.014;2024-02-04T11:34:17;98793.96;;;10.33;57.84
33286;BME280;19656;50.096;20.014;2024-02-04T11:39:21;98772.77;;;10.42;56.87
33286;BME280;19656;50.096;20.014;2024-02-04T11:44:26;98780.39;;;10.40;56.64
33286;BME280;19656;50.096;20.014;2024-02-04T11:49:30;98774.56;;;10.37;56.40
33286;BME280;19656;50.096;20.014;2024-02-04T11:54:33;98770.73;;;10.38;56.72
33286;BME280;19656;50.096;20.014;2024-02-04T11:59:36;98772.59;;;10.37;56.37
33286;BME280;19656;50.096;20.014;2024-02-04T12:04:40;98752.09;;;10.38;56.46
33286;BME280;19656;50.096;20.014;2024-02-04T12:09:44;98725.17;;;10.46;56.54
33286;BME280;19656;50.096;20.014;2024-02-04T12:14:48;98707.44;;;10.56;56.74
33286;BME280;19656;50.096;20.014;2024-02-04T12:19:52;98703.16;;;10.59;56.81
33286;BME280;19656;50.096;20.014;2024-02-04T12:24:56;98694.16;;;10.64;57.14
33286;BME280;19656;50.096;20.014;2024-02-04T12:30:00;98682.47;;;10.53;57.48
33286;BME280;19656;50.096;20.014;2024-02-04T12:35:05;98667.71;;;10.43;59.48
33286;BME280;19656;50.096;20.014;2024-02-04T12:40:09;98662.06;;;10.35;60.33
33286;BME280;19656;50.096;20.014;2024-02-04T12:45:14;98672.50;;;10.25;60.83
33286;BME280;19656;50.096;20.014;2024-02-04T12:50:19;98673.60;;;10.13;62.14
33286;BME280;19656;50.096;20.014;2024-02-04T12:55:23;98673.98;;;10.10;63.45
33286;BME280;19656;50.096;20.014;2024-02-04T13:00:27;98683.00;;;10.02;64.76
33286;BME280;19656;50.096;20.014;2024-02-04T13:05:32;98687.34;;;9.85;66.41
33286;BME280;19656;50.096;20.014;2024-02-04T13:10:36;98685.16;;;9.80;68.23
33286;BME280;19656;50.096;20.014;2024-02-04T13:15:41;98679.53;;;9.80;68.37
33286;BME280;19656;50.096;20.014;2024-02-04T13:20:44;98672.50;;;9.70;68.79
33286;BME280;19656;50.096;20.014;2024-02-04T13:25:48;98664.36;;;9.62;69.28
33286;BME280;19656;50.096;20.014;2024-02-04T13:30:52;98630.55;;;9.64;69.68
33286;BME280;19656;50.096;20.014;2024-02-04T13:35:55;98614.84;;;9.66;69.91
33286;BME280;19656;50.096;20.014;2024-02-04T13:40:59;98623.43;;;9.65;70.42
33286;BME280;19656;50.096;20.014;2024-02-04T13:46:03;98623.29;;;9.67;70.52
33286;BME280;19656;50.096;20.014;2024-02-04T13:51:06;98619.66;;;9.65;70.80
33286;BME280;19656;50.096;20.014;2024-02-04T13:56:10;98626.10;;;9.73;71.03
33286;BME280;19656;50.096;20.014;2024-02-04T14:01:14;98631.27;;;9.83;71.15
33286;BME280;19656;50.096;20.014;2024-02-04T14:06:18;98628.84;;;9.93;70.99
33286;BME280;19656;50.096;20.014;2024-02-04T14:11:21;98628.99;;;9.93;71.03
33286;BME280;19656;50.096;20.014;2024-02-04T14:16:25;98616.20;;;9.86;71.40
33286;BME280;19656;50.096;20.014;2024-02-04T14:21:28;98610.39;;;9.75;71.95
33286;BME280;19656;50.096;20.014;2024-02-04T14:26:31;98591.11;;;9.88;72.35
33286;BME280;19656;50.096;20.014;2024-02-04T14:31:35;98572.67;;;9.93;71.38
33286;BME280;19656;50.096;20.014;2024-02-04T14:36:38;98561.86;;;9.93;70.81
33286;BME280;19656;50.096;20.014;2024-02-04T14:41:41;98555.27;;;9.81;70.57
33286;BME280;19656;50.096;20.014;2024-02-04T14:46:44;98551.41;;;9.75;70.92
33286;BME280;19656;50.096;20.014;2024-02-04T14:51:48;98540.70;;;9.76;70.83
33286;BME280;19656;50.096;20.014;2024-02-04T14:56:51;98544.95;;;9.73;70.61
33286;BME280;19656;50.096;20.014;2024-02-04T15:01:55;98552.07;;;9.64;70.91
33286;BME280;19656;50.096;20.014;2024-02-04T15:06:59;98555.55;;;9.71;70.89
33286;BME280;19656;50.096;20.014;2024-02-04T15:12:06;98555.96;;;9.76;70.79
33286;BME280;19656;50.096;20.014;2024-02-04T15:17:10;98550.79;;;9.81;70.70
33286;BME280;19656;50.096;20.014;2024-02-04T15:22:14;98535.52;;;9.84;70.63
33286;BME280;19656;50.096;20.014;2024-02-04T15:27:18;98523.83;;;9.82;70.75
33286;BME280;19656;50.096;20.014;2024-02-04T15:32:22;98515.58;;;9.78;70.75
33286;BME280;19656;50.096;20.014;2024-02-04T15:37:27;98506.75;;;9.78;70.90
33286;BME280;19656;50.096;20.014;2024-02-04T15:42:30;98503.33;;;9.81;70.81
33286;BME280;19656;50.096;20.014;2024-02-04T15:47:37;98503.34;;;9.83;70.79
33286;BME280;19656;50.096;20.014;2024-02-04T15:52:44;98497.05;;;9.87;70.76
33286;BME280;19656;50.096;20.014;2024-02-04T15:57:51;98494.13;;;9.91;70.80
33286;BME280;19656;50.096;20.014;2024-02-04T16:02:56;98492.06;;;9.90;70.56
33286;BME280;19656;50.096;20.014;2024-02-04T16:07:59;98487.40;;;9.86;70.69
33286;BME280;19656;50.096;20.014;2024-02-04T16:13:06;98473.80;;;9.83;70.76
33286;BME280;19656;50.096;20.014;2024-02-04T16:18:13;98467.44;;;9.85;70.69
33286;BME280;19656;50.096;20.014;2024-02-04T16:23:16;98469.20;;;9.82;70.46
33286;BME280;19656;50.096;20.014;2024-02-04T16:28:20;98470.13;;;9.80;70.49
33286;BME280;19656;50.096;20.014;2024-02-04T16:33:23;98477.99;;;9.73;71.21
33286;BME280;19656;50.096;20.014;2024-02-04T16:38:27;98473.23;;;9.70;71.72
33286;BME280;19656;50.096;20.014;2024-02-04T16:43:31;98471.58;;;9.71;71.73
33286;BME280;19656;50.096;20.014;2024-02-04T16:48:34;98463.37;;;9.69;71.87
33286;BME280;19656;50.096;20.014;2024-02-04T16:53:37;98450.52;;;9.73;71.96
33286;BME280;19656;50.096;20.014;2024-02-04T16:58:41;98442.11;;;9.80;71.97
33286;BME280;19656;50.096;20.014;2024-02-04T17:03:45;98443.85;;;9.78;72.45
33286;BME280;19656;50.096;20.014;2024-02-04T17:08:49;98449.52;;;9.78;72.56
33286;BME280;19656;50.096;20.014;2024-02-04T17:13:52;98435.91;;;9.75;72.62
33286;BME280;19656;50.096;20.014;2024-02-04T17:24:45;98428.35;;;9.63;72.34
33286;BME280;19656;50.096;20.014;2024-02-04T17:29:49;98422.67;;;9.63;72.01
33286;BME280;19656;50.096;20.014;2024-02-04T17:35:00;98416.51;;;9.55;72.20
33286;BME280;19656;50.096;20.014;2024-02-04T17:40:05;98422.91;;;9.50;72.22
33286;BME280;19656;50.096;20.014;2024-02-04T17:45:12;98430.74;;;9.52;71.84
33286;BME280;19656;50.096;20.014;2024-02-04T17:50:16;98429.13;;;9.60;71.44
33286;BME280;19656;50.096;20.014;2024-02-04T17:55:19;98436.36;;;9.63;70.92
33286;BME280;19656;50.096;20.014;2024-02-04T18:00:23;98437.91;;;9.58;70.35
33286;BME280;19656;50.096;20.014;2024-02-04T18:05:26;98431.39;;;9.55;70.33
33286;BME280;19656;50.096;20.014;2024-02-04T18:10:29;98426.80;;;9.57;70.30
33286;BME280;19656;50.096;20.014;2024-02-04T18:15:33;98429.13;;;9.57;70.15
33286;BME280;19656;50.096;20.014;2024-02-04T18:20:36;98431.89;;;9.58;70.69
33286;BME280;19656;50.096;20.014;2024-02-04T18:25:39;98430.27;;;9.59;71.15
33286;BME280;19656;50.096;20.014;2024-02-04T18:30:43;98428.94;;;9.57;71.26
33286;BME280;19656;50.096;20.014;2024-02-04T18:35:47;98429.18;;;9.64;71.02
33286;BME280;19656;50.096;20.014;2024-02-04T18:40:50;98432.89;;;9.64;70.69
33286;BME280;19656;50.096;20.014;2024-02-04T18:45:54;98436.91;;;9.70;70.41
33286;BME280;19656;50.096;20.014;2024-02-04T18:50:58;98440.34;;;9.72;70.17
33286;BME280;19656;50.096;20.014;2024-02-04T18:56:06;98445.33;;;9.71;69.69
33286;BME280;19656;50.096;20.014;2024-02-04T19:01:09;98456.77;;;9.70;69.30
33286;BME280;19656;50.096;20.014;2024-02-04T19:06:13;98457.02;;;9.77;69.13
33286;BME280;19656;50.096;20.014;2024-02-04T19:11:16;98463.70;;;9.80;68.72
33286;BME280;19656;50.096;20.014;2024-02-04T19:16:22;98465.33;;;9.77;68.42
33286;BME280;19656;50.096;20.014;2024-02-04T19:21:26;98463.77;;;9.79;68.42
33286;BME280;19656;50.096;20.014;2024-02-04T19:26:30;98470.35;;;9.82;68.24
33286;BME280;19656;50.096;20.014;2024-02-04T19:31:35;98461.48;;;9.79;68.12
33286;BME280;19656;50.096;20.014;2024-02-04T19:36:38;98468.23;;;9.81;67.62
33286;BME280;19656;50.096;20.014;2024-02-04T19:41:42;98475.64;;;9.84;67.14
33286;BME280;19656;50.096;20.014;2024-02-04T19:46:46;98470.37;;;9.89;66.89
33286;BME280;19656;50.096;20.014;2024-02-04T19:51:50;98469.22;;;9.87;66.90
33286;BME280;19656;50.096;20.014;2024-02-04T19:56:54;98471.40;;;10.00;68.94
33286;BME280;19656;50.096;20.014;2024-02-04T20:01:57;98470.67;;;10.08;66.13
33286;BME280;19656;50.096;20.014;2024-02-04T20:07:02;98463.70;;;9.95;66.06
33286;BME280;19656;50.096;20.014;2024-02-04T20:12:07;98461.42;;;9.85;66.12
33286;BME280;19656;50.096;20.014;2024-02-04T20:17:11;98459.45;;;9.78;65.94
33286;BME280;19656;50.096;20.014;2024-02-04T20:22:14;98461.98;;;9.79;65.91
33286;BME280;19656;50.096;20.014;2024-02-04T20:27:20;98460.13;;;9.80;65.33
33286;BME280;19656;50.096;20.014;2024-02-04T20:32:23;98452.35;;;9.80;64.97
33286;BME280;19656;50.096;20.014;2024-02-04T20:37:27;98449.51;;;9.83;63.99
33286;BME280;19656;50.096;20.014;2024-02-04T20:42:32;98444.14;;;9.76;62.75
33286;BME280;19656;50.096;20.014;2024-02-04T20:47:38;98441.47;;;9.65;62.17
33286;BME280;19656;50.096;20.014;2024-02-04T20:52:41;98448.75;;;9.60;62.64
33286;BME280;19656;50.096;20.014;2024-02-04T20:57:44;98464.55;;;9.60;64.46
33286;BME280;19656;50.096;20.014;2024-02-04T21:02:47;98465.21;;;9.50;65.69
33286;BME280;19656;50.096;20.014;2024-02-04T21:07:51;98459.95;;;9.36;66.15
33286;BME280;19656;50.096;20.014;2024-02-04T21:12:54;98458.16;;;9.33;66.60
33286;BME280;19656;50.096;20.014;2024-02-04T21:17:58;98454.61;;;9.42;67.03
33286;BME280;19656;50.096;20.014;2024-02-04T21:23:02;98455.99;;;9.47;67.22
33286;BME280;19656;50.096;20.014;2024-02-04T21:28:06;98452.70;;;9.38;67.16
33286;BME280;19656;50.096;20.014;2024-02-04T21:33:09;98450.13;;;9.32;66.73
33286;BME280;19656;50.096;20.014;2024-02-04T21:38:12;98447.81;;;9.32;66.11
33286;BME280;19656;50.096;20.014;2024-02-04T21:43:16;98446.56;;;9.24;65.09
33286;BME280;19656;50.096;20.014;2024-02-04T21:48:21;98440.66;;;9.19;65.24
33286;BME280;19656;50.096;20.014;2024-02-04T21:53:24;98434.54;;;9.18;64.84
33286;BME280;19656;50.096;20.014;2024-02-04T21:58:27;98431.46;;;9.14;64.49
33286;BME280;19656;50.096;20.014;2024-02-04T22:03:31;98434.66;;;9.11;64.89
33286;BME280;19656;50.096;20.014;2024-02-04T22:08:36;98435.15;;;9.12;65.36
33286;BME280;19656;50.096;20.014;2024-02-04T22:13:39;98427.16;;;9.04;66.03
33286;BME280;19656;50.096;20.014;2024-02-04T22:18:42;98411.95;;;8.91;66.49
33286;BME280;19656;50.096;20.014;2024-02-04T22:23:46;98411.67;;;8.92;66.69
33286;BME280;19656;50.096;20.014;2024-02-04T22:28:49;98421.58;;;8.90;67.00
33286;BME280;19656;50.096;20.014;2024-02-04T22:33:53;98425.00;;;8.78;67.85
33286;BME280;19656;50.096;20.014;2024-02-04T22:38:56;98411.02;;;8.64;68.71
33286;BME280;19656;50.096;20.014;2024-02-04T22:44:00;98407.98;;;8.48;69.65
33286;BME280;19656;50.096;20.014;2024-02-04T22:49:03;98415.27;;;8.42;70.14
33286;BME280;19656;50.096;20.014;2024-02-04T22:54:07;98418.27;;;8.22;70.91
33286;BME280;19656;50.096;20.014;2024-02-04T22:59:14;98423.53;;;8.02;71.41
33286;BME280;19656;50.096;20.014;2024-02-04T23:04:17;98416.97;;;7.94;72.12
33286;BME280;19656;50.096;20.014;2024-02-04T23:09:23;98413.45;;;7.79;72.21
33286;BME280;19656;50.096;20.014;2024-02-04T23:14:26;98402.61;;;7.72;72.39
33286;BME280;19656;50.096;20.014;2024-02-04T23:19:30;98406.95;;;7.56;72.94
33286;BME280;19656;50.096;20.014;2024-02-04T23:24:33;98409.11;;;7.58;72.99
33286;BME280;19656;50.096;20.014;2024-02-04T23:29:39;98406.98;;;7.52;73.04
33286;BME280;19656;50.096;20.014;2024-02-04T23:34:42;98415.28;;;7.46;73.62
33286;BME280;19656;50.096;20.014;2024-02-04T23:39:45;98418.05;;;7.41;73.37
33286;BME280;19656;50.096;20.014;2024-02-04T23:44:49;98412.02;;;7.35;73.54
33286;BME280;19656;50.096;20.014;2024-02-04T23:49:54;98412.89;;;7.33;73.81
33286;BME280;19656;50.096;20.014;2024-02-04T23:54:57;98420.98;;;7.36;73.66
